sensor_id;sensor_type;location;lat;lon;timestamp;pressure;altitude;pressure_sealevel;temperature;humidity
12799;BME280;19250;42.646;26.980;2023-02-17T00:00:19;99885.63;;;4.38;83.95
12799;BME280;19250;42.646;26.980;2023-02-17T00:02:46;99882.44;;;4.60;84.17
12799;BME280;19250;42.646;26.980;2023-02-17T00:05:14;99885.97;;;4.47;85.72
12799;BME280;19250;42.646;26.980;2023-02-17T00:07:41;99884.06;;;4.22;86.99
12799;BME280;19250;42.646;26.980;2023-02-17T00:10:10;99884.38;;;4.03;87.99
12799;BME280;19250;42.646;26.980;2023-02-17T00:12:38;99882.13;;;3.97;90.56
12799;BME280;19250;42.646;26.980;2023-02-17T00:15:05;99880.59;;;3.93;91.48
12799;BME280;19250;42.646;26.980;2023-02-17T00:17:33;99880.00;;;4.16;88.49
12799;BME280;19250;42.646;26.980;2023-02-17T00:20:00;99875.31;;;4.07;89.27
12799;BME280;19250;42.646;26.980;2023-02-17T00:22:27;99872.16;;;4.43;87.70
12799;BME280;19250;42.646;26.980;2023-02-17T00:24:55;99865.53;;;4.09;87.71
12799;BME280;19250;42.646;26.980;2023-02-17T00:27:23;99868.63;;;4.02;88.45
12799;BME280;19250;42.646;26.980;2023-02-17T00:29:51;99864.56;;;4.10;87.99
12799;BME280;19250;42.646;26.980;2023-02-17T00:32:18;99809.03;;;3.85;88.88
12799;BME280;19250;42.646;26.980;2023-02-17T00:34:45;99851.38;;;4.10;89.74
12799;BME280;19250;42.646;26.980;2023-02-17T00:37:12;99851.75;;;4.18;91.23
12799;BME280;19250;42.646;26.980;2023-02-17T00:39:40;99840.59;;;4.27;97.50
12799;BME280;19250;42.646;26.980;2023-02-17T00:42:07;99847.34;;;4.46;99.22
12799;BME280;19250;42.646;26.980;2023-02-17T00:44:36;99843.44;;;4.51;100.00
12799;BME280;19250;42.646;26.980;2023-02-17T00:47:03;99840.38;;;4.84;100.00
12799;BME280;19250;42.646;26.980;2023-02-17T00:49:30;99832.03;;;4.90;100.00
12799;BME280;19250;42.646;26.980;2023-02-17T00:51:58;99838.38;;;4.87;100.00
12799;BME280;19250;42.646;26.980;2023-02-17T00:54:26;99839.22;;;4.88;100.00
12799;BME280;19250;42.646;26.980;2023-02-17T00:56:54;99832.59;;;4.95;100.00
12799;BME280;19250;42.646;26.980;2023-02-17T00:59:21;99830.13;;;4.53;100.00
12799;BME280;19250;42.646;26.980;2023-02-17T01:01:50;99823.91;;;4.93;100.00
12799;BME280;19250;42.646;26.980;2023-02-17T01:04:17;99819.59;;;4.92;100.00
12799;BME280;19250;42.646;26.980;2023-02-17T01:06:45;99815.78;;;5.09;100.00
12799;BME280;19250;42.646;26.980;2023-02-17T01:09:13;99811.44;;;5.20;100.00
12799;BME280;19250;42.646;26.980;2023-02-17T01:11:41;99816.94;;;5.17;100.00
12799;BME280;19250;42.646;26.980;2023-02-17T01:14:11;99806.69;;;5.50;100.00
12799;BME280;19250;42.646;26.980;2023-02-17T01:16:40;99809.38;;;5.38;98.79
12799;BME280;19250;42.646;26.980;2023-02-17T01:19:13;99809.00;;;4.92;93.91
12799;BME280;19250;42.646;26.980;2023-02-17T01:21:41;99806.38;;;5.17;92.24
12799;BME280;19250;42.646;26.980;2023-02-17T01:24:09;99806.44;;;4.78;91.45
12799;BME280;19250;42.646;26.980;2023-02-17T01:26:38;99803.63;;;5.06;89.81
12799;BME280;19250;42.646;26.980;2023-02-17T01:29:07;99803.59;;;4.81;89.00
12799;BME280;19250;42.646;26.980;2023-02-17T01:31:34;99800.09;;;4.68;89.18
12799;BME280;19250;42.646;26.980;2023-02-17T01:34:03;99802.00;;;4.39;89.66
12799;BME280;19250;42.646;26.980;2023-02-17T01:36:32;99752.84;;;3.97;90.20
12799;BME280;19250;42.646;26.980;2023-02-17T01:38:59;99790.06;;;4.19;90.34
12799;BME280;19250;42.646;26.980;2023-02-17T01:41:27;99790.66;;;4.10;90.80
12799;BME280;19250;42.646;26.980;2023-02-17T01:44:05;99791.84;;;3.92;91.56
12799;BME280;19250;42.646;26.980;2023-02-17T01:46:33;99788.22;;;4.07;90.59
12799;BME280;19250;42.646;26.980;2023-02-17T01:49:02;99791.63;;;4.09;91.83
12799;BME280;19250;42.646;26.980;2023-02-17T01:51:33;99787.59;;;4.30;90.26
12799;BME280;19250;42.646;26.980;2023-02-17T01:54:04;99780.94;;;4.25;90.14
12799;BME280;19250;42.646;26.980;2023-02-17T01:56:34;99786.75;;;4.03;91.39
12799;BME280;19250;42.646;26.980;2023-02-17T01:59:05;99779.22;;;3.97;91.83
12799;BME280;19250;42.646;26.980;2023-02-17T02:01:34;99784.13;;;4.03;90.57
12799;BME280;19250;42.646;26.980;2023-02-17T02:04:03;99759.44;;;3.63;93.90
12799;BME280;19250;42.646;26.980;2023-02-17T02:06:35;99768.28;;;3.48;95.14
12799;BME280;19250;42.646;26.980;2023-02-17T02:09:06;99767.78;;;3.56;95.20
12799;BME280;19250;42.646;26.980;2023-02-17T02:11:35;99760.69;;;3.84;95.03
12799;BME280;19250;42.646;26.980;2023-02-17T02:14:04;99704.25;;;3.46;93.63
12799;BME280;19250;42.646;26.980;2023-02-17T02:16:38;99766.84;;;3.71;95.27
12799;BME280;19250;42.646;26.980;2023-02-17T02:19:28;99757.06;;;3.73;94.37
12799;BME280;19250;42.646;26.980;2023-02-17T02:22:22;99747.97;;;3.91;94.56
12799;BME280;19250;42.646;26.980;2023-02-17T02:25:08;99745.41;;;4.16;92.40
12799;BME280;19250;42.646;26.980;2023-02-17T02:27:50;99742.78;;;3.90;93.32
12799;BME280;19250;42.646;26.980;2023-02-17T02:30:40;99741.59;;;4.08;91.90
12799;BME280;19250;42.646;26.980;2023-02-17T02:33:18;99750.00;;;4.00;92.38
12799;BME280;19250;42.646;26.980;2023-02-17T02:35:55;99743.13;;;3.57;95.00
12799;BME280;19250;42.646;26.980;2023-02-17T02:38:26;99752.97;;;3.81;95.89
12799;BME280;19250;42.646;26.980;2023-02-17T02:41:00;99758.22;;;3.41;97.13
12799;BME280;19250;42.646;26.980;2023-02-17T02:43:29;99752.31;;;3.78;96.01
12799;BME280;19250;42.646;26.980;2023-02-17T02:45:57;99755.50;;;3.97;94.68
12799;BME280;19250;42.646;26.980;2023-02-17T02:48:26;99762.88;;;3.78;94.16
12799;BME280;19250;42.646;26.980;2023-02-17T02:51:19;99750.94;;;3.99;95.25
12799;BME280;19250;42.646;26.980;2023-02-17T02:54:14;99751.31;;;4.34;93.05
12799;BME280;19250;42.646;26.980;2023-02-17T02:57:03;99743.88;;;4.26;93.17
12799;BME280;19250;42.646;26.980;2023-02-17T02:59:45;99749.75;;;4.17;93.93
12799;BME280;19250;42.646;26.980;2023-02-17T03:02:20;99748.13;;;4.02;95.72
12799;BME280;19250;42.646;26.980;2023-02-17T03:04:56;99747.00;;;3.92;97.64
12799;BME280;19250;42.646;26.980;2023-02-17T03:07:28;99749.88;;;3.75;98.29
12799;BME280;19250;42.646;26.980;2023-02-17T03:09:58;99750.94;;;3.58;99.20
12799;BME280;19250;42.646;26.980;2023-02-17T03:12:27;99749.84;;;3.20;100.00
12799;BME280;19250;42.646;26.980;2023-02-17T03:14:59;99750.84;;;3.60;100.00
12799;BME280;19250;42.646;26.980;2023-02-17T03:17:30;99754.63;;;3.70;100.00
12799;BME280;19250;42.646;26.980;2023-02-17T03:19:59;99758.41;;;3.38;100.00
12799;BME280;19250;42.646;26.980;2023-02-17T03:22:32;99758.56;;;3.49;100.00
12799;BME280;19250;42.646;26.980;2023-02-17T03:25:01;99751.78;;;3.73;100.00
12799;BME280;19250;42.646;26.980;2023-02-17T03:27:29;99751.59;;;4.03;100.00
12799;BME280;19250;42.646;26.980;2023-02-17T03:29:56;99750.16;;;4.11;100.00
12799;BME280;19250;42.646;26.980;2023-02-17T03:32:24;99751.25;;;4.21;99.15
12799;BME280;19250;42.646;26.980;2023-02-17T03:34:51;99756.22;;;3.99;100.00
12799;BME280;19250;42.646;26.980;2023-02-17T03:37:20;99761.00;;;3.52;100.00
12799;BME280;19250;42.646;26.980;2023-02-17T03:39:47;99758.38;;;3.66;100.00
12799;BME280;19250;42.646;26.980;2023-02-17T03:42:14;99756.25;;;3.30;100.00
12799;BME280;19250;42.646;26.980;2023-02-17T03:44:41;99752.91;;;3.55;100.00
12799;BME280;19250;42.646;26.980;2023-02-17T03:47:09;99761.22;;;3.63;100.00
12799;BME280;19250;42.646;26.980;2023-02-17T03:49:36;99754.63;;;3.13;100.00
12799;BME280;19250;42.646;26.980;2023-02-17T03:52:03;99721.31;;;3.12;100.00
12799;BME280;19250;42.646;26.980;2023-02-17T03:54:32;99765.81;;;3.03;100.00
12799;BME280;19250;42.646;26.980;2023-02-17T03:56:59;99767.34;;;3.49;100.00
12799;BME280;19250;42.646;26.980;2023-02-17T03:59:27;99766.09;;;3.55;100.00
12799;BME280;19250;42.646;26.980;2023-02-17T04:01:55;99763.84;;;3.06;100.00
12799;BME280;19250;42.646;26.980;2023-02-17T04:04:22;99759.09;;;2.69;100.00
12799;BME280;19250;42.646;26.980;2023-02-17T04:06:49;99757.47;;;3.10;100.00
12799;BME280;19250;42.646;26.980;2023-02-17T04:09:16;99752.47;;;3.48;100.00
12799;BME280;19250;42.646;26.980;2023-02-17T04:11:45;99753.72;;;3.14;100.00
12799;BME280;19250;42.646;26.980;2023-02-17T04:14:12;99759.34;;;3.51;100.00
12799;BME280;19250;42.646;26.980;2023-02-17T04:16:39;99744.81;;;3.58;100.00
12799;BME280;19250;42.646;26.980;2023-02-17T04:19:07;99761.78;;;3.40;100.00
12799;BME280;19250;42.646;26.980;2023-02-17T04:21:34;99712.09;;;3.34;100.00
12799;BME280;19250;42.646;26.980;2023-02-17T04:24:02;99755.69;;;3.80;100.00
12799;BME280;19250;42.646;26.980;2023-02-17T04:26:30;99766.13;;;3.41;100.00
12799;BME280;19250;42.646;26.980;2023-02-17T04:28:59;99758.38;;;3.66;100.00
12799;BME280;19250;42.646;26.980;2023-02-17T04:31:26;99754.34;;;3.60;100.00
12799;BME280;19250;42.646;26.980;2023-02-17T04:33:53;99750.84;;;3.60;100.00
12799;BME280;19250;42.646;26.980;2023-02-17T04:36:21;99755.75;;;3.09;100.00
12799;BME280;19250;42.646;26.980;2023-02-17T04:38:48;99755.69;;;2.67;100.00
12799;BME280;19250;42.646;26.980;2023-02-17T04:41:15;99738.97;;;2.68;100.00
12799;BME280;19250;42.646;26.980;2023-02-17T04:43:43;99746.13;;;2.80;100.00
12799;BME280;19250;42.646;26.980;2023-02-17T04:46:12;99759.47;;;2.63;100.00
12799;BME280;19250;42.646;26.980;2023-02-17T04:48:39;99753.66;;;2.72;100.00
12799;BME280;19250;42.646;26.980;2023-02-17T04:51:07;99754.38;;;2.60;100.00
12799;BME280;19250;42.646;26.980;2023-02-17T04:53:34;99757.66;;;2.93;100.00
12799;BME280;19250;42.646;26.980;2023-02-17T04:56:01;99757.03;;;2.74;100.00
12799;BME280;19250;42.646;26.980;2023-02-17T04:58:28;99766.28;;;2.51;100.00
12799;BME280;19250;42.646;26.980;2023-02-17T05:00:57;99769.28;;;2.30;100.00
12799;BME280;19250;42.646;26.980;2023-02-17T05:03:26;99771.41;;;2.68;100.00
12799;BME280;19250;42.646;26.980;2023-02-17T05:05:53;99770.88;;;2.78;100.00
12799;BME280;19250;42.646;26.980;2023-02-17T05:08:21;99766.47;;;2.92;100.00
12799;BME280;19250;42.646;26.980;2023-02-17T05:10:49;99772.84;;;2.88;100.00
12799;BME280;19250;42.646;26.980;2023-02-17T05:13:17;99764.75;;;2.77;100.00
12799;BME280;19250;42.646;26.980;2023-02-17T05:15:44;99770.59;;;2.82;100.00
12799;BME280;19250;42.646;26.980;2023-02-17T05:18:12;99777.84;;;2.49;100.00
12799;BME280;19250;42.646;26.980;2023-02-17T05:20:41;99776.72;;;2.53;100.00
12799;BME280;19250;42.646;26.980;2023-02-17T05:23:08;99772.81;;;2.60;100.00
12799;BME280;19250;42.646;26.980;2023-02-17T05:25:36;99776.09;;;2.63;100.00
12799;BME280;19250;42.646;26.980;2023-02-17T05:28:05;99778.72;;;2.34;100.00
12799;BME280;19250;42.646;26.980;2023-02-17T05:30:33;99795.84;;;2.70;100.00
12799;BME280;19250;42.646;26.980;2023-02-17T05:33:00;99790.41;;;2.73;100.00
12799;BME280;19250;42.646;26.980;2023-02-17T05:35:27;99789.69;;;2.86;100.00
12799;BME280;19250;42.646;26.980;2023-02-17T05:37:56;99780.59;;;3.19;100.00
12799;BME280;19250;42.646;26.980;2023-02-17T05:40:23;99788.16;;;3.54;100.00
12799;BME280;19250;42.646;26.980;2023-02-17T05:42:50;99783.97;;;3.78;100.00
12799;BME280;19250;42.646;26.980;2023-02-17T05:45:18;99789.28;;;3.64;100.00
12799;BME280;19250;42.646;26.980;2023-02-17T05:47:45;99781.69;;;4.00;100.00
12799;BME280;19250;42.646;26.980;2023-02-17T05:50:12;99788.16;;;3.95;100.00
12799;BME280;19250;42.646;26.980;2023-02-17T05:52:39;99791.03;;;4.18;100.00
12799;BME280;19250;42.646;26.980;2023-02-17T05:55:08;99789.28;;;4.31;100.00
12799;BME280;19250;42.646;26.980;2023-02-17T05:57:36;99790.59;;;3.98;100.00
12799;BME280;19250;42.646;26.980;2023-02-17T06:00:04;99786.31;;;4.23;100.00
12799;BME280;19250;42.646;26.980;2023-02-17T06:02:31;99792.75;;;4.98;100.00
12799;BME280;19250;42.646;26.980;2023-02-17T06:04:58;99782.06;;;4.48;100.00
12799;BME280;19250;42.646;26.980;2023-02-17T06:07:26;99774.75;;;4.38;100.00
12799;BME280;19250;42.646;26.980;2023-02-17T06:09:53;99783.38;;;4.67;100.00
12799;BME280;19250;42.646;26.980;2023-02-17T06:12:21;99791.75;;;4.74;100.00
12799;BME280;19250;42.646;26.980;2023-02-17T06:14:49;99779.53;;;4.98;100.00
12799;BME280;19250;42.646;26.980;2023-02-17T06:17:16;99775.50;;;5.43;100.00
12799;BME280;19250;42.646;26.980;2023-02-17T06:19:43;99783.44;;;5.56;100.00
12799;BME280;19250;42.646;26.980;2023-02-17T06:22:10;99784.91;;;5.09;100.00
12799;BME280;19250;42.646;26.980;2023-02-17T06:24:38;99770.84;;;5.21;100.00
12799;BME280;19250;42.646;26.980;2023-02-17T06:27:05;99775.13;;;5.73;100.00
12799;BME280;19250;42.646;26.980;2023-02-17T06:29:34;99778.56;;;6.11;100.00
12799;BME280;19250;42.646;26.980;2023-02-17T06:32:01;99774.00;;;5.39;100.00
12799;BME280;19250;42.646;26.980;2023-02-17T06:34:29;99787.00;;;5.67;100.00
12799;BME280;19250;42.646;26.980;2023-02-17T06:36:56;99789.13;;;5.75;100.00
12799;BME280;19250;42.646;26.980;2023-02-17T06:39:23;99781.22;;;6.11;100.00
12799;BME280;19250;42.646;26.980;2023-02-17T06:41:51;99779.91;;;6.17;100.00
12799;BME280;19250;42.646;26.980;2023-02-17T06:44:18;99772.19;;;6.14;100.00
12799;BME280;19250;42.646;26.980;2023-02-17T06:46:47;99777.97;;;5.95;100.00
12799;BME280;19250;42.646;26.980;2023-02-17T06:49:14;99771.06;;;5.43;100.00
12799;BME280;19250;42.646;26.980;2023-02-17T06:51:41;99767.78;;;5.40;100.00
12799;BME280;19250;42.646;26.980;2023-02-17T06:54:08;99758.56;;;5.33;100.00
12799;BME280;19250;42.646;26.980;2023-02-17T06:56:36;99768.78;;;5.88;100.00
12799;BME280;19250;42.646;26.980;2023-02-17T06:59:03;99769.75;;;5.74;100.00
12799;BME280;19250;42.646;26.980;2023-02-17T07:01:31;99777.81;;;6.56;100.00
12799;BME280;19250;42.646;26.980;2023-02-17T07:03:59;99770.53;;;6.00;100.00
12799;BME280;19250;42.646;26.980;2023-02-17T07:06:27;99771.25;;;6.73;100.00
12799;BME280;19250;42.646;26.980;2023-02-17T07:08:54;99762.81;;;7.14;100.00
12799;BME280;19250;42.646;26.980;2023-02-17T07:11:21;99768.25;;;7.68;97.46
12799;BME280;19250;42.646;26.980;2023-02-17T07:13:48;99774.28;;;7.59;96.67
12799;BME280;19250;42.646;26.980;2023-02-17T07:16:16;99776.47;;;7.76;95.82
12799;BME280;19250;42.646;26.980;2023-02-17T07:18:43;99772.84;;;7.66;93.29
12799;BME280;19250;42.646;26.980;2023-02-17T07:21:12;99773.44;;;8.46;90.01
12799;BME280;19250;42.646;26.980;2023-02-17T07:23:39;99772.13;;;7.53;92.56
12799;BME280;19250;42.646;26.980;2023-02-17T07:26:08;99777.78;;;7.48;96.56
12799;BME280;19250;42.646;26.980;2023-02-17T07:28:37;99777.72;;;7.04;96.55
12799;BME280;19250;42.646;26.980;2023-02-17T07:31:05;99779.00;;;7.44;95.89
12799;BME280;19250;42.646;26.980;2023-02-17T07:33:33;99788.16;;;7.74;94.76
12799;BME280;19250;42.646;26.980;2023-02-17T07:36:04;99786.34;;;7.30;97.49
12799;BME280;19250;42.646;26.980;2023-02-17T07:38:34;99779.88;;;6.99;99.47
12799;BME280;19250;42.646;26.980;2023-02-17T07:41:05;99780.78;;;6.76;100.00
12799;BME280;19250;42.646;26.980;2023-02-17T07:43:32;99787.66;;;6.54;100.00
12799;BME280;19250;42.646;26.980;2023-02-17T07:45:59;99784.25;;;7.22;100.00
12799;BME280;19250;42.646;26.980;2023-02-17T07:48:27;99783.91;;;7.27;97.82
12799;BME280;19250;42.646;26.980;2023-02-17T07:50:54;99791.31;;;7.45;97.91
12799;BME280;19250;42.646;26.980;2023-02-17T07:53:21;99751.19;;;7.04;98.50
12799;BME280;19250;42.646;26.980;2023-02-17T07:55:50;99792.50;;;7.41;98.38
12799;BME280;19250;42.646;26.980;2023-02-17T07:58:17;99793.06;;;8.11;95.45
12799;BME280;19250;42.646;26.980;2023-02-17T08:00:44;99789.56;;;8.11;95.20
12799;BME280;19250;42.646;26.980;2023-02-17T08:03:12;99784.31;;;7.66;98.39
12799;BME280;19250;42.646;26.980;2023-02-17T08:05:40;99763.25;;;8.51;96.27
12799;BME280;19250;42.646;26.980;2023-02-17T08:08:07;99759.47;;;8.21;97.62
12799;BME280;19250;42.646;26.980;2023-02-17T08:10:53;99745.72;;;8.59;94.94
12799;BME280;19250;42.646;26.980;2023-02-17T08:13:38;99773.34;;;8.36;98.44
12799;BME280;19250;42.646;26.980;2023-02-17T08:16:05;99777.94;;;8.66;98.75
12799;BME280;19250;42.646;26.980;2023-02-17T08:18:32;99765.31;;;8.58;99.76
12799;BME280;19250;42.646;26.980;2023-02-17T08:21:00;99769.88;;;8.56;100.00
12799;BME280;19250;42.646;26.980;2023-02-17T08:23:27;99769.28;;;9.05;99.19
12799;BME280;19250;42.646;26.980;2023-02-17T08:25:57;99768.50;;;9.35;97.37
12799;BME280;19250;42.646;26.980;2023-02-17T08:28:25;99752.53;;;8.94;97.77
12799;BME280;19250;42.646;26.980;2023-02-17T08:30:52;99752.53;;;8.94;99.88
12799;BME280;19250;42.646;26.980;2023-02-17T08:33:19;99753.84;;;8.79;100.00
12799;BME280;19250;42.646;26.980;2023-02-17T08:35:46;99751.41;;;9.38;100.00
12799;BME280;19250;42.646;26.980;2023-02-17T08:38:14;99757.91;;;9.45;97.64
12799;BME280;19250;42.646;26.980;2023-02-17T08:40:41;99766.97;;;9.42;96.90
12799;BME280;19250;42.646;26.980;2023-02-17T08:43:10;99771.28;;;9.13;99.58
12799;BME280;19250;42.646;26.980;2023-02-17T08:45:37;99778.81;;;9.28;99.27
12799;BME280;19250;42.646;26.980;2023-02-17T08:48:04;99766.63;;;9.56;96.42
12799;BME280;19250;42.646;26.980;2023-02-17T08:50:32;99767.16;;;9.50;96.01
12799;BME280;19250;42.646;26.980;2023-02-17T08:52:59;99777.50;;;9.44;96.11
12799;BME280;19250;42.646;26.980;2023-02-17T08:55:26;99780.53;;;9.39;97.74
12799;BME280;19250;42.646;26.980;2023-02-17T08:57:54;99778.84;;;9.99;95.77
12799;BME280;19250;42.646;26.980;2023-02-17T09:00:23;99782.78;;;10.73;90.30
12799;BME280;19250;42.646;26.980;2023-02-17T09:02:50;99790.44;;;11.33;86.22
12799;BME280;19250;42.646;26.980;2023-02-17T09:05:18;99777.00;;;11.06;86.61
12799;BME280;19250;42.646;26.980;2023-02-17T09:07:45;99780.94;;;12.05;80.34
12799;BME280;19250;42.646;26.980;2023-02-17T09:10:12;99767.19;;;10.78;85.37
12799;BME280;19250;42.646;26.980;2023-02-17T09:12:40;99775.88;;;10.99;83.40
12799;BME280;19250;42.646;26.980;2023-02-17T09:15:07;99773.09;;;11.01;84.95
12799;BME280;19250;42.646;26.980;2023-02-17T09:17:39;99772.97;;;11.48;80.27
12799;BME280;19250;42.646;26.980;2023-02-17T09:20:07;99779.78;;;11.24;78.76
12799;BME280;19250;42.646;26.980;2023-02-17T09:22:34;99766.91;;;10.90;80.75
12799;BME280;19250;42.646;26.980;2023-02-17T09:25:02;99781.22;;;10.80;81.57
12799;BME280;19250;42.646;26.980;2023-02-17T09:27:30;99767.69;;;11.20;80.23
12799;BME280;19250;42.646;26.980;2023-02-17T09:29:57;99763.28;;;10.72;83.83
12799;BME280;19250;42.646;26.980;2023-02-17T09:32:24;99766.06;;;10.61;81.38
12799;BME280;19250;42.646;26.980;2023-02-17T09:34:53;99759.00;;;10.22;85.11
12799;BME280;19250;42.646;26.980;2023-02-17T09:37:20;99757.06;;;10.24;85.84
12799;BME280;19250;42.646;26.980;2023-02-17T09:39:48;99757.50;;;10.48;82.15
12799;BME280;19250;42.646;26.980;2023-02-17T09:42:18;99755.09;;;10.93;81.84
12799;BME280;19250;42.646;26.980;2023-02-17T09:44:48;99759.47;;;10.84;82.23
12799;BME280;19250;42.646;26.980;2023-02-17T09:47:20;99768.00;;;11.07;80.75
12799;BME280;19250;42.646;26.980;2023-02-17T09:49:53;99765.66;;;10.66;82.41
12799;BME280;19250;42.646;26.980;2023-02-17T09:52:26;99764.59;;;11.24;79.24
12799;BME280;19250;42.646;26.980;2023-02-17T09:55:02;99755.78;;;11.61;75.69
12799;BME280;19250;42.646;26.980;2023-02-17T09:57:33;99752.41;;;11.12;75.78
12799;BME280;19250;42.646;26.980;2023-02-17T10:00:06;99741.34;;;10.40;79.11
12799;BME280;19250;42.646;26.980;2023-02-17T10:02:39;99738.53;;;10.80;79.04
12799;BME280;19250;42.646;26.980;2023-02-17T10:05:15;99717.34;;;10.78;76.65
12799;BME280;19250;42.646;26.980;2023-02-17T10:07:47;99737.97;;;10.96;77.06
12799;BME280;19250;42.646;26.980;2023-02-17T10:10:20;99697.28;;;10.74;76.31
12799;BME280;19250;42.646;26.980;2023-02-17T10:12:50;99735.88;;;11.45;74.34
12799;BME280;19250;42.646;26.980;2023-02-17T10:15:23;99654.03;;;10.80;75.22
12799;BME280;19250;42.646;26.980;2023-02-17T10:17:55;99725.81;;;11.30;72.94
12799;BME280;19250;42.646;26.980;2023-02-17T10:20:30;99710.41;;;11.88;69.69
12799;BME280;19250;42.646;26.980;2023-02-17T10:23:03;99718.38;;;11.70;70.35
12799;BME280;19250;42.646;26.980;2023-02-17T10:25:53;99713.38;;;11.48;71.52
12799;BME280;19250;42.646;26.980;2023-02-17T10:31:27;99715.09;;;12.04;70.32
12799;BME280;19250;42.646;26.980;2023-02-17T10:34:01;99701.50;;;12.15;68.76
12799;BME280;19250;42.646;26.980;2023-02-17T10:36:37;99702.31;;;11.97;68.96
12799;BME280;19250;42.646;26.980;2023-02-17T10:39:12;99709.50;;;11.70;70.28
12799;BME280;19250;42.646;26.980;2023-02-17T10:41:41;99696.50;;;12.02;68.92
12799;BME280;19250;42.646;26.980;2023-02-17T10:44:16;99686.22;;;12.07;67.55
12799;BME280;19250;42.646;26.980;2023-02-17T10:46:45;99680.94;;;12.33;66.40
12799;BME280;19250;42.646;26.980;2023-02-17T10:49:24;99686.03;;;12.79;63.21
12799;BME280;19250;42.646;26.980;2023-02-17T10:51:54;99686.50;;;13.00;59.52
12799;BME280;19250;42.646;26.980;2023-02-17T10:54:29;99677.69;;;13.68;56.60
12799;BME280;19250;42.646;26.980;2023-02-17T10:57:00;99678.81;;;14.07;53.89
12799;BME280;19250;42.646;26.980;2023-02-17T10:59:31;99670.75;;;13.99;53.18
12799;BME280;19250;42.646;26.980;2023-02-17T11:02:12;99670.69;;;14.33;51.80
12799;BME280;19250;42.646;26.980;2023-02-17T11:04:40;99664.25;;;15.14;49.55
12799;BME280;19250;42.646;26.980;2023-02-17T11:07:12;99654.22;;;15.63;47.22
12799;BME280;19250;42.646;26.980;2023-02-17T11:09:46;99656.38;;;16.29;44.41
12799;BME280;19250;42.646;26.980;2023-02-17T11:12:16;99659.59;;;16.48;42.02
12799;BME280;19250;42.646;26.980;2023-02-17T11:14:48;99647.44;;;16.60;41.06
12799;BME280;19250;42.646;26.980;2023-02-17T11:17:20;99655.72;;;16.50;42.16
12799;BME280;19250;42.646;26.980;2023-02-17T11:19:57;99621.34;;;16.52;40.88
12799;BME280;19250;42.646;26.980;2023-02-17T11:22:35;99657.47;;;16.66;40.94
12799;BME280;19250;42.646;26.980;2023-02-17T11:25:18;99660.63;;;16.47;40.45
12799;BME280;19250;42.646;26.980;2023-02-17T11:27:50;99650.81;;;15.77;41.18
12799;BME280;19250;42.646;26.980;2023-02-17T11:30:18;99652.34;;;16.25;40.24
12799;BME280;19250;42.646;26.980;2023-02-17T11:32:46;99645.25;;;16.55;39.84
12799;BME280;19250;42.646;26.980;2023-02-17T11:35:23;99652.09;;;17.32;37.22
12799;BME280;19250;42.646;26.980;2023-02-17T11:38:00;99628.06;;;16.33;38.61
12799;BME280;19250;42.646;26.980;2023-02-17T11:40:28;99647.63;;;16.73;37.62
12799;BME280;19250;42.646;26.980;2023-02-17T11:42:58;99647.50;;;16.44;36.96
12799;BME280;19250;42.646;26.980;2023-02-17T11:45:28;99635.09;;;18.54;34.33
12799;BME280;19250;42.646;26.980;2023-02-17T11:48:13;99629.22;;;18.29;34.47
12799;BME280;19250;42.646;26.980;2023-02-17T11:50:50;99632.38;;;18.75;34.28
12799;BME280;19250;42.646;26.980;2023-02-17T11:53:28;99624.00;;;17.71;34.71
12799;BME280;19250;42.646;26.980;2023-02-17T11:56:06;99624.19;;;17.25;35.99
12799;BME280;19250;42.646;26.980;2023-02-17T11:58:53;99613.41;;;16.81;35.68
12799;BME280;19250;42.646;26.980;2023-02-17T12:01:41;99614.94;;;16.39;37.81
12799;BME280;19250;42.646;26.980;2023-02-17T12:04:24;99621.56;;;16.51;38.38
12799;BME280;19250;42.646;26.980;2023-02-17T12:07:11;99613.19;;;16.68;38.46
12799;BME280;19250;42.646;26.980;2023-02-17T12:09:47;99612.16;;;16.69;38.34
12799;BME280;19250;42.646;26.980;2023-02-17T12:12:27;99576.97;;;16.85;37.16
12799;BME280;19250;42.646;26.980;2023-02-17T12:15:02;99603.25;;;16.69;38.08
12799;BME280;19250;42.646;26.980;2023-02-17T12:17:41;99599.19;;;17.17;37.13
12799;BME280;19250;42.646;26.980;2023-02-17T12:20:34;99599.94;;;17.25;35.91
12799;BME280;19250;42.646;26.980;2023-02-17T12:23:16;99586.38;;;17.33;35.37
12799;BME280;19250;42.646;26.980;2023-02-17T12:25:50;99578.72;;;17.52;34.90
12799;BME280;19250;42.646;26.980;2023-02-17T12:28:45;99584.41;;;16.83;36.44
12799;BME280;19250;42.646;26.980;2023-02-17T12:31:23;99578.47;;;17.61;34.78
12799;BME280;19250;42.646;26.980;2023-02-17T12:33:58;99591.44;;;18.51;33.56
12799;BME280;19250;42.646;26.980;2023-02-17T12:36:30;99578.31;;;18.26;33.78
12799;BME280;19250;42.646;26.980;2023-02-17T12:39:02;99590.84;;;18.55;32.73
12799;BME280;19250;42.646;26.980;2023-02-17T12:41:36;99594.94;;;18.30;33.33
12799;BME280;19250;42.646;26.980;2023-02-17T12:44:07;99586.53;;;17.32;34.56
12799;BME280;19250;42.646;26.980;2023-02-17T12:46:41;99584.59;;;17.91;33.43
12799;BME280;19250;42.646;26.980;2023-02-17T12:49:11;99584.47;;;17.99;32.59
12799;BME280;19250;42.646;26.980;2023-02-17T12:51:43;99586.84;;;17.87;32.90
12799;BME280;19250;42.646;26.980;2023-02-17T12:54:16;99577.25;;;18.48;32.10
12799;BME280;19250;42.646;26.980;2023-02-17T12:56:58;99580.75;;;18.64;31.51
12799;BME280;19250;42.646;26.980;2023-02-17T12:59:32;99584.06;;;18.66;31.52
12799;BME280;19250;42.646;26.980;2023-02-17T13:02:02;99587.56;;;18.87;30.93
12799;BME280;19250;42.646;26.980;2023-02-17T13:07:35;99587.81;;;18.65;31.55
12799;BME280;19250;42.646;26.980;2023-02-17T13:10:15;99580.25;;;19.16;30.96
12799;BME280;19250;42.646;26.980;2023-02-17T13:12:54;99582.53;;;20.20;29.21
12799;BME280;19250;42.646;26.980;2023-02-17T13:15:29;99578.91;;;18.98;30.75